Data for 02/05/2010

Time Sea-Level Adjusted Pressure Absolute Pressure Temperature Relative Humidity Dew Point   
(mb) (inHg) (mb) (inHg) (C) (F) (%) (C) (F)
00:05 1013 29.91 842 24.86 -4.9 23.3 79 -7.9 17.7
00:10 1013 29.91 842 24.86 -5 23.1 79 -8.1 17.5
00:15 1013 29.91 842 24.86 -4.3 24.3 77 -7.8 18
00:20 1013 29.91 842 24.86 -3.9 25 75 -7.7 18.2
00:25 1013 29.91 842 24.86 -3.7 25.4 73 -7.8 17.9
00:30 1013 29.91 842 24.86 -3.1 26.5 72 -7.4 18.7
00:35 1013 29.91 843 24.89 -3 26.7 72 -7.3 18.9
00:40 1013 29.91 843 24.89 -3.2 26.3 73 -7.3 18.8
00:45 1013 29.91 843 24.89 -3.5 25.6 73 -7.6 18.3
00:50 1013 29.91 843 24.89 -4.6 23.8 75 -8.4 16.9
00:55 1013 29.91 843 24.89 -5.2 22.6 78 -8.5 16.6
01:00 1013 29.91 843 24.89 -5.8 21.5 79 -8.8 16.1
01:05 1013 29.91 843 24.89 -6.1 21 81 -8.9 16
01:10 1013 29.91 843 24.89 -5.5 22.1 80 -8.4 16.9
01:15 1013 29.91 843 24.89 -5.2 22.6 79 -8.3 17.1
01:20 1013 29.91 843 24.89 -5.5 22.2 80 -8.4 16.8
01:25 1013 29.91 843 24.89 -5.6 21.9 80 -8.6 16.6
01:30 1013 29.91 843 24.89 -6 21.2 81 -8.7 16.4
01:35 1013 29.91 843 24.89 -6 21.2 81 -8.8 16.2
01:40 1013 29.91 843 24.89 -6.6 20.2 82 -9.2 15.4
01:45 1013 29.91 843 24.89 -6.6 20.1 83 -9.1 15.6
01:50 1013 29.91 843 24.89 -5.8 21.5 80 -8.7 16.3
01:55 1013 29.91 843 24.89 -5.9 21.3 81 -8.7 16.3
02:00 1013 29.91 843 24.89 -5.8 21.6 80 -8.7 16.3
02:05 1013 29.91 842 24.86 -5.9 21.3 80 -8.8 16.1
02:10 1013 29.91 842 24.86 -5.8 21.5 80 -8.7 16.3
02:15 1013 29.91 842 24.86 -5.7 21.8 80 -8.6 16.6
02:20 1013 29.91 842 24.86 -5.4 22.4 79 -8.4 16.9
02:25 1013 29.91 842 24.86 -5.3 22.4 78 -8.6 16.6
02:30 1013 29.91 842 24.86 -5.5 22.1 78 -8.7 16.4
02:35 1013 29.91 842 24.86 -5.3 22.5 78 -8.5 16.8
02:40 1013 29.91 842 24.86 -5.3 22.5 78 -8.5 16.7
02:45 1013 29.91 842 24.86 -5.2 22.6 78 -8.5 16.7
02:50 1013 29.91 842 24.86 -5.2 22.7 78 -8.5 16.7
02:55 1013 29.91 842 24.86 -4.9 23.1 76 -8.5 16.6
03:00 1013 29.91 842 24.86 -4.5 23.9 73 -8.6 16.6
03:05 1013 29.91 842 24.86 -4 24.8 71 -8.5 16.7
03:10 1013 29.91 842 24.86 -3.7 25.4 70 -8.4 16.9
03:15 1013 29.91 842 24.86 -3.6 25.6 70 -8.3 17.1
03:20 1013 29.91 842 24.86 -3.6 25.6 70 -8.2 17.2
03:25 1013 29.91 843 24.89 -3.8 25.2 71 -8.2 17.2
03:30 1013 29.91 843 24.89 -3.9 25 71 -8.4 17
03:35 1013 29.91 843 24.89 -3.8 25.1 70 -8.5 16.8
03:40 1013 29.91 843 24.89 -3.5 25.8 69 -8.4 16.8
03:45 1013 29.91 843 24.89 -3.3 26 70 -8.1 17.5
03:50 1013 29.91 843 24.89 -3.5 25.6 71 -8.1 17.3
03:55 1013 29.91 843 24.89 -3.7 25.3 71 -8.2 17.2
04:00 1013 29.91 843 24.89 -3.9 24.9 74 -8 17.7
04:05 1013 29.91 843 24.89 -4.2 24.5 73 -8.3 17
04:10 1013 29.91 843 24.89 -4.1 24.6 73 -8.2 17.3
04:15 1013 29.91 843 24.89 -4.3 24.3 74 -8.3 17.1
04:20 1013 29.91 842 24.86 -4.2 24.4 73 -8.4 16.9
04:25 1013 29.91 842 24.86 -4.2 24.4 73 -8.4 16.9
04:30 1013 29.91 842 24.86 -4.1 24.5 72 -8.4 16.8
04:35 1013 29.91 842 24.86 -4.2 24.5 73 -8.3 17.1
04:40 1013 29.91 842 24.86 -4.4 24.1 74 -8.3 17.1
04:45 1013 29.91 842 24.86 -4.5 23.9 75 -8.2 17.2
04:50 1013 29.91 842 24.86 -4.6 23.7 76 -8.2 17.3
04:55 1013 29.91 842 24.86 -4.4 24.1 75 -8.2 17.3
05:00 1013 29.91 842 24.86 -4 24.8 73 -8.1 17.4
05:05 1013 29.91 843 24.89 -3.3 26 69 -8.2 17.2
05:10 1013 29.91 842 24.86 -3.1 26.4 69 -8 17.6
05:15 1013 29.91 842 24.86 -3.2 26.3 69 -8.1 17.5
05:20 1013 29.91 842 24.86 -3.2 26.2 69 -8.1 17.4
05:25 1013 29.91 842 24.86 -3.2 26.2 69 -8.1 17.4
05:30 1013 29.91 842 24.86 -3.2 26.3 69 -8 17.6
05:35 1013 29.91 842 24.86 -3.2 26.2 71 -7.8 17.9
05:40 1013 29.91 842 24.86 -3.5 25.7 73 -7.7 18.2
05:45 1013 29.91 842 24.86 -3.6 25.4 73 -7.9 17.8
05:50 1013 29.91 842 24.86 -3.6 25.4 73 -7.7 18.1
05:55 1013 29.91 842 24.86 -3.8 25.2 74 -7.8 18
06:00 1013 29.91 842 24.86 -3.8 25.1 73 -7.9 17.7
06:05 1013 29.91 842 24.86 -3.6 25.5 72 -7.9 17.7
06:10 1013 29.91 842 24.86 -3.4 25.8 72 -7.7 18.1
06:15 1013 29.91 842 24.86 -3.3 26 71 -7.9 17.7
06:20 1013 29.91 842 24.86 -3.2 26.2 73 -7.4 18.7
06:25 1013 29.91 842 24.86 -3.3 26.1 74 -7.3 18.9
06:30 1013 29.91 842 24.86 -3.5 25.7 75 -7.3 18.8
06:35 1013 29.91 842 24.86 -3.7 25.3 77 -7.1 19.1
06:40 1013 29.91 842 24.86 -3.9 25 77 -7.3 18.8
06:45 1013 29.91 842 24.86 -3.9 24.9 77 -7.4 18.8
06:50 1013 29.91 842 24.86 -4 24.8 77 -7.4 18.7
06:55 1013 29.91 842 24.86 -4 24.9 77 -7.5 18.6
07:00 1013 29.91 842 24.86 -4 24.9 76 -7.5 18.5
07:05 1013 29.91 842 24.86 -4 24.8 77 -7.4 18.6
07:10 1013 29.91 842 24.86 -4.1 24.7 78 -7.3 18.8
07:15 1013 29.91 842 24.86 -4.1 24.6 79 -7.3 18.9
07:20 1013 29.91 842 24.86 -4.2 24.5 81 -7 19.5
07:25 1013 29.91 842 24.86 -4.2 24.4 82 -6.9 19.6
07:30 1013 29.91 842 24.86 -4.2 24.5 81 -6.9 19.6
07:35 1013 29.91 842 24.86 -4 24.9 81 -6.8 19.8
07:40 1013 29.91 842 24.86 -3.7 25.4 80 -6.6 20.1
07:45 1013 29.91 842 24.86 -3.7 25.4 80 -6.6 20.1
07:50 1013 29.91 842 24.86 -3.8 25.2 80 -6.6 20
07:55 1013 29.91 842 24.86 -3.8 25.2 81 -6.6 20.1
08:00 1013 29.91 842 24.86 -3.7 25.3 81 -6.5 20.3
08:05 1013 29.91 842 24.86 -3.7 25.3 81 -6.5 20.3
08:10 1013 29.91 842 24.86 -3.8 25.1 81 -6.5 20.2
08:15 1013 29.91 842 24.86 -3.8 25.1 82 -6.4 20.4
08:20 1013 29.91 842 24.86 -3.7 25.3 81 -6.6 20.2
08:25 1013 29.91 843 24.89 -3.5 25.6 79 -6.6 20.1
08:30 1013 29.91 842 24.86 -3.5 25.8 79 -6.6 20.1
08:35 1013 29.91 843 24.89 -3.3 26.1 78 -6.5 20.3
08:40 1013 29.91 843 24.89 -3.2 26.3 77 -6.6 20.1
08:45 1013 29.91 843 24.89 -3.2 26.2 78 -6.5 20.3
08:50 1014 29.94 843 24.89 -3.1 26.4 76 -6.7 19.9
08:55 1013 29.91 843 24.89 -3 26.6 76 -6.7 20
09:00 1013 29.91 843 24.89 -2.9 26.8 75 -6.7 20
09:05 1014 29.94 843 24.89 -3.1 26.5 76 -6.8 19.8
09:10 1014 29.94 843 24.89 -2.8 26.9 74 -6.8 19.7
09:15 1014 29.94 843 24.89 -2.6 27.4 74 -6.6 20.1
09:20 1014 29.94 843 24.89 -2.5 27.5 75 -6.4 20.5
09:25 1014 29.94 843 24.89 -2.8 27 77 -6.3 20.7
09:30 1014 29.94 843 24.89 -2.9 26.8 77 -6.4 20.5
09:35 1014 29.94 843 24.89 -2.7 27.1 76 -6.4 20.5
09:40 1014 29.94 843 24.89 -2.4 27.7 76 -6.1 21
09:45 1014 29.94 843 24.89 -2.1 28.3 73 -6.3 20.7
09:50 1014 29.94 843 24.89 -2.1 28.2 73 -6.3 20.6
09:55 1014 29.94 843 24.89 -2 28.4 72 -6.4 20.5
10:00 1014 29.94 843 24.89 -1.7 28.9 70 -6.6 20.2
10:05 1014 29.94 843 24.89 -1.6 29.1 69 -6.5 20.2
10:10 1014 29.94 843 24.89 -1.5 29.3 70 -6.3 20.6
10:15 1014 29.94 843 24.89 -1.1 29.9 70 -6 21.2
10:20 1014 29.94 843 24.89 -1.1 30 70 -5.9 21.3
10:25 1014 29.94 843 24.89 -1 30.2 68 -6.2 20.8
10:30 1014 29.94 843 24.89 -0.9 30.3 70 -5.8 21.6
10:35 1014 29.94 843 24.89 -0.9 30.4 70 -5.8 21.6
10:40 1014 29.94 843 24.89 -0.9 30.3 69 -5.9 21.4
10:45 1014 29.94 843 24.89 -0.7 30.7 70 -5.6 22
10:50 1014 29.94 843 24.89 -1.1 30.1 70 -5.8 21.5
10:55 1014 29.94 843 24.89 -1.2 29.8 71 -5.9 21.4
11:00 1014 29.94 843 24.89 -1.3 29.7 68 -6.5 20.3
11:05 1014 29.94 843 24.89 -1.3 29.7 69 -6.3 20.7
11:10 1014 29.94 843 24.89 -1.3 29.6 70 -6.1 21
11:15 1014 29.94 843 24.89 -0.7 30.7 66 -6.2 20.8
11:20 1014 29.94 843 24.89 -1 30.2 66 -6.6 20.2
11:25 1014 29.94 843 24.89 -1.3 29.7 68 -6.4 20.5
11:30 1014 29.94 843 24.89 -0.5 31.1 66 -6.2 20.9
11:35 1014 29.94 843 24.89 0.1 32.3 63 -6.1 21.1
11:40 1014 29.94 843 24.89 0.3 32.6 65 -5.5 22.1
11:45 1014 29.94 843 24.89 0.5 32.9 63 -5.8 21.5